Helena Regional Airport
KHLN : now visible

Airfield :











YOU CAN JOIN US ON...

 
LOGIN :

Register | Disclaimer

   EN    FR    IT 

 









Legend :    VFR   Marginal VFR   IFR   Intensive IFR   Very Intensive IFR
Visi :
Ceiling :
>= 8 km
>= 3000ft
5 to 8 km
1000 to 3000 ft
1500m to 5 km
500 to 1000 ft
800 to 1500m
200 to 500 ft
< 800m
< 200 ft
Symbols :   Thunderstorms  Fog  Heavy snow  Heavy precipitations  Wind > 20 kt






- Airport Elevation : 3877 ft
- IATA code : HLN


KHLN - Helena Regional

CURRENT METAR :
  • 100553Z AUTO 21004KT 10SM CLR 11/M04 A2990 RMK AO2 SLP135 T01111039 10194 20094 58001

EXPIRED METARs :
  • 100453Z AUTO 00000KT 10SM CLR 11/M04 A2992 RMK AO2 SLP145 T01111039
  • 100353Z AUTO 22006KT 10SM CLR 13/M04 A2992 RMK AO2 SLP148 T01281039

TAF KHLN
Valid from the 10 at 06:00 until the 11 at 06:00 UTC


100547Z 1006/1106 VRB05KT P6SM FEW120
FM102000 32014KT P6SM SCT100 BKN150
FM110200 30011KT P6SM SCT040 BKN080
PROB30 1103/1106 -SHRA BKN040



MET'MAP, your aeronautical weather chart ! - Copyright ORBIFLY December 2007 - Disclaimer

ORBIFLY MET'MAP TEAM :

Programming & Development : Alexandra Zaïnal
Concept & original design : Baudouin d'Aumeries
Assistance for programming : Marc-Olivier Méhu
Technical & hardware support : Manuel Goepfert

Contact : metmap@orbifly.com




SOURCES & CREDITS :

   NOAA       Earth
Advisory